sensor_id;sensor_type;location;lat;lon;timestamp;P1;durP1;ratioP1;P2;durP2;ratioP2
42602;SDS011;28233;55.748;48.752;2022-08-21T00:01:00;5.03;;;3.00;;
42602;SDS011;28233;55.748;48.752;2022-08-21T00:03:09;14.90;;;3.35;;
42602;SDS011;28233;55.748;48.752;2022-08-21T00:05:14;6.10;;;2.97;;
42602;SDS011;28233;55.748;48.752;2022-08-21T00:07:17;9.52;;;3.60;;
42602;SDS011;28233;55.748;48.752;2022-08-21T00:09:20;7.68;;;3.92;;
42602;SDS011;28233;55.748;48.752;2022-08-21T00:11:23;10.05;;;3.60;;
42602;SDS011;28233;55.748;48.752;2022-08-21T00:13:26;4.72;;;3.22;;
42602;SDS011;28233;55.748;48.752;2022-08-21T00:15:29;5.25;;;2.90;;
42602;SDS011;28233;55.748;48.752;2022-08-21T00:17:34;7.50;;;3.22;;
42602;SDS011;28233;55.748;48.752;2022-08-21T00:19:37;7.63;;;3.83;;
42602;SDS011;28233;55.748;48.752;2022-08-21T00:21:40;6.72;;;3.78;;
42602;SDS011;28233;55.748;48.752;2022-08-21T00:23:45;5.25;;;3.55;;
42602;SDS011;28233;55.748;48.752;2022-08-21T00:25:48;6.75;;;3.35;;
42602;SDS011;28233;55.748;48.752;2022-08-21T00:27:51;10.82;;;4.00;;
42602;SDS011;28233;55.748;48.752;2022-08-21T00:29:54;7.53;;;3.65;;
42602;SDS011;28233;55.748;48.752;2022-08-21T00:31:57;10.98;;;3.70;;
42602;SDS011;28233;55.748;48.752;2022-08-21T00:34:01;6.65;;;3.00;;
42602;SDS011;28233;55.748;48.752;2022-08-21T00:36:03;5.53;;;2.75;;
42602;SDS011;28233;55.748;48.752;2022-08-21T00:38:07;6.45;;;3.25;;
42602;SDS011;28233;55.748;48.752;2022-08-21T00:40:12;4.82;;;2.97;;
42602;SDS011;28233;55.748;48.752;2022-08-21T00:42:18;6.15;;;3.15;;
42602;SDS011;28233;55.748;48.752;2022-08-21T00:44:22;5.82;;;3.13;;
42602;SDS011;28233;55.748;48.752;2022-08-21T00:46:25;11.88;;;4.00;;
42602;SDS011;28233;55.748;48.752;2022-08-21T00:48:29;7.38;;;3.22;;
42602;SDS011;28233;55.748;48.752;2022-08-21T00:50:33;9.60;;;4.10;;
42602;SDS011;28233;55.748;48.752;2022-08-21T00:52:40;7.70;;;2.88;;
42602;SDS011;28233;55.748;48.752;2022-08-21T00:54:43;6.68;;;3.25;;
42602;SDS011;28233;55.748;48.752;2022-08-21T00:56:50;9.85;;;3.67;;
42602;SDS011;28233;55.748;48.752;2022-08-21T00:59:01;10.35;;;3.20;;
42602;SDS011;28233;55.748;48.752;2022-08-21T01:01:05;7.80;;;3.80;;
42602;SDS011;28233;55.748;48.752;2022-08-21T01:03:11;5.70;;;2.92;;
42602;SDS011;28233;55.748;48.752;2022-08-21T01:05:16;4.60;;;2.72;;
42602;SDS011;28233;55.748;48.752;2022-08-21T01:07:19;8.00;;;3.55;;
42602;SDS011;28233;55.748;48.752;2022-08-21T01:09:23;10.90;;;2.83;;
42602;SDS011;28233;55.748;48.752;2022-08-21T01:11:26;7.97;;;2.28;;
42602;SDS011;28233;55.748;48.752;2022-08-21T01:13:30;7.40;;;3.13;;
42602;SDS011;28233;55.748;48.752;2022-08-21T01:15:37;5.90;;;2.83;;
42602;SDS011;28233;55.748;48.752;2022-08-21T01:17:44;10.27;;;3.33;;
42602;SDS011;28233;55.748;48.752;2022-08-21T01:19:47;15.70;;;3.33;;
42602;SDS011;28233;55.748;48.752;2022-08-21T01:21:49;10.48;;;3.42;;
42602;SDS011;28233;55.748;48.752;2022-08-21T01:23:53;10.35;;;3.30;;
42602;SDS011;28233;55.748;48.752;2022-08-21T01:25:56;7.32;;;3.05;;
42602;SDS011;28233;55.748;48.752;2022-08-21T01:28:01;6.25;;;2.90;;
42602;SDS011;28233;55.748;48.752;2022-08-21T01:30:18;9.57;;;3.88;;
42602;SDS011;28233;55.748;48.752;2022-08-21T01:32:24;6.95;;;3.45;;
42602;SDS011;28233;55.748;48.752;2022-08-21T01:34:27;8.23;;;3.72;;
42602;SDS011;28233;55.748;48.752;2022-08-21T01:36:30;12.45;;;4.70;;
42602;SDS011;28233;55.748;48.752;2022-08-21T01:38:33;12.18;;;4.30;;
42602;SDS011;28233;55.748;48.752;2022-08-21T01:40:36;11.75;;;4.22;;
42602;SDS011;28233;55.748;48.752;2022-08-21T01:42:39;13.52;;;5.43;;
42602;SDS011;28233;55.748;48.752;2022-08-21T01:44:42;8.30;;;5.18;;
42602;SDS011;28233;55.748;48.752;2022-08-21T01:46:44;15.23;;;5.22;;
42602;SDS011;28233;55.748;48.752;2022-08-21T01:48:47;16.38;;;6.75;;
42602;SDS011;28233;55.748;48.752;2022-08-21T01:50:50;11.40;;;5.53;;
42602;SDS011;28233;55.748;48.752;2022-08-21T01:52:57;10.48;;;5.40;;
42602;SDS011;28233;55.748;48.752;2022-08-21T01:55:00;12.75;;;5.78;;
42602;SDS011;28233;55.748;48.752;2022-08-21T01:57:04;16.35;;;5.80;;
42602;SDS011;28233;55.748;48.752;2022-08-21T01:59:07;13.65;;;5.35;;
42602;SDS011;28233;55.748;48.752;2022-08-21T02:01:10;15.35;;;4.75;;
42602;SDS011;28233;55.748;48.752;2022-08-21T02:03:13;10.02;;;4.50;;
42602;SDS011;28233;55.748;48.752;2022-08-21T02:05:32;14.57;;;4.68;;
42602;SDS011;28233;55.748;48.752;2022-08-21T02:07:56;12.57;;;5.55;;
42602;SDS011;28233;55.748;48.752;2022-08-21T02:09:59;15.23;;;4.13;;
42602;SDS011;28233;55.748;48.752;2022-08-21T02:12:02;9.68;;;3.75;;
42602;SDS011;28233;55.748;48.752;2022-08-21T02:14:05;8.10;;;3.90;;
42602;SDS011;28233;55.748;48.752;2022-08-21T02:16:09;13.70;;;4.32;;
42602;SDS011;28233;55.748;48.752;2022-08-21T02:18:18;8.48;;;3.97;;
42602;SDS011;28233;55.748;48.752;2022-08-21T02:20:25;9.82;;;4.20;;
42602;SDS011;28233;55.748;48.752;2022-08-21T02:22:36;7.50;;;3.55;;
42602;SDS011;28233;55.748;48.752;2022-08-21T02:24:39;6.05;;;3.58;;
42602;SDS011;28233;55.748;48.752;2022-08-21T02:26:56;8.48;;;3.15;;
42602;SDS011;28233;55.748;48.752;2022-08-21T02:28:59;13.35;;;3.40;;
42602;SDS011;28233;55.748;48.752;2022-08-21T02:31:02;8.65;;;3.72;;
42602;SDS011;28233;55.748;48.752;2022-08-21T02:33:06;9.63;;;3.75;;
42602;SDS011;28233;55.748;48.752;2022-08-21T02:35:10;9.82;;;3.20;;
42602;SDS011;28233;55.748;48.752;2022-08-21T02:37:13;12.88;;;4.72;;
42602;SDS011;28233;55.748;48.752;2022-08-21T02:39:16;10.65;;;3.47;;
42602;SDS011;28233;55.748;48.752;2022-08-21T02:41:28;11.82;;;3.55;;
42602;SDS011;28233;55.748;48.752;2022-08-21T02:43:31;10.70;;;3.28;;
42602;SDS011;28233;55.748;48.752;2022-08-21T02:45:35;12.55;;;4.20;;
42602;SDS011;28233;55.748;48.752;2022-08-21T02:47:38;6.32;;;3.75;;
42602;SDS011;28233;55.748;48.752;2022-08-21T02:49:41;8.95;;;3.95;;
42602;SDS011;28233;55.748;48.752;2022-08-21T02:51:44;7.82;;;3.05;;
42602;SDS011;28233;55.748;48.752;2022-08-21T02:53:47;5.50;;;3.17;;
42602;SDS011;28233;55.748;48.752;2022-08-21T02:55:51;12.23;;;3.88;;
42602;SDS011;28233;55.748;48.752;2022-08-21T02:57:55;6.65;;;3.30;;
42602;SDS011;28233;55.748;48.752;2022-08-21T02:59:59;7.30;;;2.92;;
42602;SDS011;28233;55.748;48.752;2022-08-21T03:02:04;6.82;;;3.00;;
42602;SDS011;28233;55.748;48.752;2022-08-21T03:04:07;6.30;;;3.05;;
42602;SDS011;28233;55.748;48.752;2022-08-21T03:06:11;6.00;;;2.85;;
42602;SDS011;28233;55.748;48.752;2022-08-21T03:08:15;8.00;;;3.47;;
42602;SDS011;28233;55.748;48.752;2022-08-21T03:10:20;7.45;;;2.88;;
42602;SDS011;28233;55.748;48.752;2022-08-21T03:12:23;6.55;;;4.00;;
42602;SDS011;28233;55.748;48.752;2022-08-21T03:14:32;5.25;;;3.30;;
42602;SDS011;28233;55.748;48.752;2022-08-21T03:16:34;7.32;;;3.72;;
42602;SDS011;28233;55.748;48.752;2022-08-21T03:18:37;6.57;;;2.95;;
42602;SDS011;28233;55.748;48.752;2022-08-21T03:20:41;7.43;;;3.38;;
42602;SDS011;28233;55.748;48.752;2022-08-21T03:22:44;9.65;;;3.67;;
42602;SDS011;28233;55.748;48.752;2022-08-21T03:24:54;9.68;;;2.90;;
42602;SDS011;28233;55.748;48.752;2022-08-21T03:26:57;6.60;;;3.13;;
42602;SDS011;28233;55.748;48.752;2022-08-21T03:29:00;8.63;;;3.75;;
42602;SDS011;28233;55.748;48.752;2022-08-21T03:31:03;8.57;;;3.47;;
42602;SDS011;28233;55.748;48.752;2022-08-21T03:33:07;7.00;;;3.15;;
42602;SDS011;28233;55.748;48.752;2022-08-21T03:35:16;7.28;;;3.60;;
42602;SDS011;28233;55.748;48.752;2022-08-21T03:37:19;10.77;;;3.67;;
42602;SDS011;28233;55.748;48.752;2022-08-21T03:39:22;10.95;;;3.00;;
42602;SDS011;28233;55.748;48.752;2022-08-21T03:41:25;15.07;;;4.45;;
42602;SDS011;28233;55.748;48.752;2022-08-21T03:43:27;8.85;;;3.95;;
42602;SDS011;28233;55.748;48.752;2022-08-21T03:45:33;9.98;;;3.33;;
42602;SDS011;28233;55.748;48.752;2022-08-21T03:47:35;8.05;;;3.50;;
42602;SDS011;28233;55.748;48.752;2022-08-21T03:49:38;8.15;;;3.58;;
42602;SDS011;28233;55.748;48.752;2022-08-21T03:51:41;9.07;;;4.25;;
42602;SDS011;28233;55.748;48.752;2022-08-21T03:53:44;14.98;;;3.78;;
42602;SDS011;28233;55.748;48.752;2022-08-21T03:55:48;14.98;;;3.85;;
42602;SDS011;28233;55.748;48.752;2022-08-21T03:57:52;5.47;;;3.10;;
42602;SDS011;28233;55.748;48.752;2022-08-21T03:59:55;8.23;;;3.17;;
42602;SDS011;28233;55.748;48.752;2022-08-21T04:01:59;12.70;;;4.03;;
42602;SDS011;28233;55.748;48.752;2022-08-21T04:04:03;9.07;;;3.20;;
42602;SDS011;28233;55.748;48.752;2022-08-21T04:06:06;11.95;;;3.65;;
42602;SDS011;28233;55.748;48.752;2022-08-21T04:08:09;9.02;;;3.92;;
42602;SDS011;28233;55.748;48.752;2022-08-21T04:10:12;7.45;;;3.53;;
42602;SDS011;28233;55.748;48.752;2022-08-21T04:12:15;9.23;;;3.13;;
42602;SDS011;28233;55.748;48.752;2022-08-21T04:14:17;8.82;;;3.58;;
42602;SDS011;28233;55.748;48.752;2022-08-21T04:16:20;15.25;;;3.92;;
42602;SDS011;28233;55.748;48.752;2022-08-21T04:18:23;14.23;;;3.75;;
42602;SDS011;28233;55.748;48.752;2022-08-21T04:20:26;10.00;;;3.53;;
42602;SDS011;28233;55.748;48.752;2022-08-21T04:22:29;9.50;;;3.92;;
42602;SDS011;28233;55.748;48.752;2022-08-21T04:24:32;8.02;;;3.55;;
42602;SDS011;28233;55.748;48.752;2022-08-21T04:26:35;6.03;;;3.10;;
42602;SDS011;28233;55.748;48.752;2022-08-21T04:28:40;7.72;;;3.10;;
42602;SDS011;28233;55.748;48.752;2022-08-21T04:30:45;16.05;;;3.30;;
42602;SDS011;28233;55.748;48.752;2022-08-21T04:32:49;9.75;;;3.20;;
42602;SDS011;28233;55.748;48.752;2022-08-21T04:35:03;7.93;;;3.35;;
42602;SDS011;28233;55.748;48.752;2022-08-21T04:37:08;9.45;;;3.28;;
42602;SDS011;28233;55.748;48.752;2022-08-21T04:39:11;5.45;;;3.33;;
42602;SDS011;28233;55.748;48.752;2022-08-21T04:41:14;7.18;;;3.40;;
42602;SDS011;28233;55.748;48.752;2022-08-21T04:43:16;6.93;;;3.30;;
42602;SDS011;28233;55.748;48.752;2022-08-21T04:47:23;4.32;;;2.88;;
42602;SDS011;28233;55.748;48.752;2022-08-21T04:49:46;6.53;;;3.58;;
42602;SDS011;28233;55.748;48.752;2022-08-21T04:51:50;8.88;;;3.50;;
42602;SDS011;28233;55.748;48.752;2022-08-21T04:54:00;6.97;;;3.22;;
42602;SDS011;28233;55.748;48.752;2022-08-21T04:56:19;9.23;;;3.55;;
42602;SDS011;28233;55.748;48.752;2022-08-21T04:58:25;6.05;;;3.40;;
42602;SDS011;28233;55.748;48.752;2022-08-21T05:00:29;5.07;;;3.10;;
42602;SDS011;28233;55.748;48.752;2022-08-21T05:02:32;7.30;;;2.67;;
42602;SDS011;28233;55.748;48.752;2022-08-21T05:04:36;8.63;;;3.15;;
42602;SDS011;28233;55.748;48.752;2022-08-21T05:06:44;8.57;;;2.60;;
42602;SDS011;28233;55.748;48.752;2022-08-21T05:08:49;6.90;;;2.67;;
42602;SDS011;28233;55.748;48.752;2022-08-21T05:11:03;4.25;;;2.35;;
42602;SDS011;28233;55.748;48.752;2022-08-21T05:13:06;7.82;;;2.30;;
42602;SDS011;28233;55.748;48.752;2022-08-21T05:15:10;6.10;;;2.78;;
42602;SDS011;28233;55.748;48.752;2022-08-21T05:17:16;5.97;;;2.65;;
42602;SDS011;28233;55.748;48.752;2022-08-21T05:19:19;8.13;;;2.58;;
42602;SDS011;28233;55.748;48.752;2022-08-21T05:21:21;3.28;;;2.22;;
42602;SDS011;28233;55.748;48.752;2022-08-21T05:23:24;6.18;;;3.10;;
42602;SDS011;28233;55.748;48.752;2022-08-21T05:25:27;7.68;;;3.10;;
42602;SDS011;28233;55.748;48.752;2022-08-21T05:27:31;4.35;;;2.53;;
42602;SDS011;28233;55.748;48.752;2022-08-21T05:29:34;3.25;;;2.42;;
42602;SDS011;28233;55.748;48.752;2022-08-21T05:31:37;5.28;;;3.20;;
42602;SDS011;28233;55.748;48.752;2022-08-21T05:33:40;23.00;;;3.40;;
42602;SDS011;28233;55.748;48.752;2022-08-21T05:35:44;2.78;;;2.38;;
42602;SDS011;28233;55.748;48.752;2022-08-21T05:37:47;5.20;;;2.75;;
42602;SDS011;28233;55.748;48.752;2022-08-21T05:39:50;7.28;;;2.90;;
42602;SDS011;28233;55.748;48.752;2022-08-21T05:42:13;4.45;;;2.38;;
42602;SDS011;28233;55.748;48.752;2022-08-21T05:44:15;4.97;;;2.75;;
42602;SDS011;28233;55.748;48.752;2022-08-21T05:46:18;4.47;;;2.33;;
42602;SDS011;28233;55.748;48.752;2022-08-21T05:48:21;5.22;;;2.33;;
42602;SDS011;28233;55.748;48.752;2022-08-21T05:50:25;4.70;;;2.55;;
42602;SDS011;28233;55.748;48.752;2022-08-21T05:52:34;5.03;;;2.28;;
42602;SDS011;28233;55.748;48.752;2022-08-21T05:54:37;8.90;;;2.70;;
42602;SDS011;28233;55.748;48.752;2022-08-21T05:56:40;9.40;;;2.47;;
42602;SDS011;28233;55.748;48.752;2022-08-21T05:58:46;4.28;;;2.00;;
42602;SDS011;28233;55.748;48.752;2022-08-21T06:00:49;7.05;;;2.63;;
42602;SDS011;28233;55.748;48.752;2022-08-21T06:02:52;6.78;;;2.83;;
42602;SDS011;28233;55.748;48.752;2022-08-21T06:04:55;8.32;;;2.38;;
42602;SDS011;28233;55.748;48.752;2022-08-21T06:06:59;13.75;;;3.15;;
42602;SDS011;28233;55.748;48.752;2022-08-21T06:09:02;4.97;;;2.83;;
42602;SDS011;28233;55.748;48.752;2022-08-21T06:11:06;9.60;;;2.17;;
42602;SDS011;28233;55.748;48.752;2022-08-21T06:13:10;9.65;;;3.05;;
42602;SDS011;28233;55.748;48.752;2022-08-21T06:15:13;3.45;;;2.47;;
42602;SDS011;28233;55.748;48.752;2022-08-21T06:17:16;7.20;;;2.20;;
42602;SDS011;28233;55.748;48.752;2022-08-21T06:19:19;2.92;;;1.52;;
42602;SDS011;28233;55.748;48.752;2022-08-21T06:21:22;6.43;;;2.50;;
42602;SDS011;28233;55.748;48.752;2022-08-21T06:23:24;3.63;;;2.50;;
42602;SDS011;28233;55.748;48.752;2022-08-21T06:25:34;6.70;;;1.98;;
42602;SDS011;28233;55.748;48.752;2022-08-21T06:27:37;8.73;;;2.65;;
42602;SDS011;28233;55.748;48.752;2022-08-21T06:29:40;6.65;;;2.17;;
42602;SDS011;28233;55.748;48.752;2022-08-21T06:31:46;10.60;;;2.67;;
42602;SDS011;28233;55.748;48.752;2022-08-21T06:33:50;4.03;;;2.65;;
42602;SDS011;28233;55.748;48.752;2022-08-21T06:35:54;6.65;;;2.83;;
42602;SDS011;28233;55.748;48.752;2022-08-21T06:37:57;4.72;;;2.20;;
42602;SDS011;28233;55.748;48.752;2022-08-21T06:40:00;6.47;;;2.67;;
42602;SDS011;28233;55.748;48.752;2022-08-21T06:42:04;4.20;;;2.25;;
42602;SDS011;28233;55.748;48.752;2022-08-21T06:44:11;5.38;;;2.25;;
42602;SDS011;28233;55.748;48.752;2022-08-21T06:46:14;5.65;;;2.55;;
42602;SDS011;28233;55.748;48.752;2022-08-21T06:48:16;4.75;;;2.22;;
42602;SDS011;28233;55.748;48.752;2022-08-21T06:50:20;3.38;;;2.05;;
42602;SDS011;28233;55.748;48.752;2022-08-21T06:52:23;6.97;;;2.00;;
42602;SDS011;28233;55.748;48.752;2022-08-21T06:54:25;6.43;;;2.05;;
42602;SDS011;28233;55.748;48.752;2022-08-21T06:56:28;8.68;;;2.13;;
42602;SDS011;28233;55.748;48.752;2022-08-21T06:58:32;5.18;;;2.10;;
42602;SDS011;28233;55.748;48.752;2022-08-21T07:00:35;4.80;;;2.20;;
42602;SDS011;28233;55.748;48.752;2022-08-21T07:02:42;6.70;;;1.83;;
42602;SDS011;28233;55.748;48.752;2022-08-21T07:04:45;5.50;;;1.90;;
42602;SDS011;28233;55.748;48.752;2022-08-21T07:06:47;4.90;;;1.95;;
42602;SDS011;28233;55.748;48.752;2022-08-21T07:08:50;4.18;;;2.15;;
42602;SDS011;28233;55.748;48.752;2022-08-21T07:10:54;8.50;;;2.40;;
42602;SDS011;28233;55.748;48.752;2022-08-21T07:12:59;6.63;;;1.67;;
42602;SDS011;28233;55.748;48.752;2022-08-21T07:15:02;7.18;;;2.40;;
42602;SDS011;28233;55.748;48.752;2022-08-21T07:17:06;4.00;;;2.10;;
42602;SDS011;28233;55.748;48.752;2022-08-21T07:19:08;4.90;;;2.53;;
42602;SDS011;28233;55.748;48.752;2022-08-21T07:21:11;8.32;;;2.15;;
42602;SDS011;28233;55.748;48.752;2022-08-21T07:23:28;10.38;;;2.03;;
42602;SDS011;28233;55.748;48.752;2022-08-21T07:25:32;2.85;;;1.75;;
42602;SDS011;28233;55.748;48.752;2022-08-21T07:27:35;5.10;;;2.25;;
42602;SDS011;28233;55.748;48.752;2022-08-21T07:29:37;4.45;;;1.95;;
42602;SDS011;28233;55.748;48.752;2022-08-21T07:31:40;3.50;;;1.80;;
42602;SDS011;28233;55.748;48.752;2022-08-21T07:33:43;5.85;;;1.67;;
42602;SDS011;28233;55.748;48.752;2022-08-21T07:35:46;5.82;;;1.77;;
42602;SDS011;28233;55.748;48.752;2022-08-21T07:37:49;3.25;;;2.38;;
42602;SDS011;28233;55.748;48.752;2022-08-21T07:39:52;4.47;;;2.30;;
42602;SDS011;28233;55.748;48.752;2022-08-21T07:41:55;4.07;;;2.03;;
42602;SDS011;28233;55.748;48.752;2022-08-21T07:43:58;8.73;;;1.40;;
42602;SDS011;28233;55.748;48.752;2022-08-21T07:46:02;3.45;;;1.70;;
42602;SDS011;28233;55.748;48.752;2022-08-21T07:48:05;5.15;;;2.40;;
42602;SDS011;28233;55.748;48.752;2022-08-21T07:50:08;5.22;;;2.00;;
42602;SDS011;28233;55.748;48.752;2022-08-21T07:52:11;3.50;;;1.98;;
42602;SDS011;28233;55.748;48.752;2022-08-21T07:54:17;4.97;;;1.77;;
42602;SDS011;28233;55.748;48.752;2022-08-21T07:56:34;3.70;;;2.30;;
42602;SDS011;28233;55.748;48.752;2022-08-21T07:58:37;2.53;;;1.80;;
42602;SDS011;28233;55.748;48.752;2022-08-21T08:00:40;5.88;;;2.05;;
42602;SDS011;28233;55.748;48.752;2022-08-21T08:02:47;6.60;;;2.38;;
42602;SDS011;28233;55.748;48.752;2022-08-21T08:04:52;2.47;;;2.10;;
42602;SDS011;28233;55.748;48.752;2022-08-21T08:06:56;5.63;;;1.90;;
42602;SDS011;28233;55.748;48.752;2022-08-21T08:08:59;4.97;;;1.90;;
42602;SDS011;28233;55.748;48.752;2022-08-21T08:11:03;8.63;;;1.90;;
42602;SDS011;28233;55.748;48.752;2022-08-21T08:13:06;4.15;;;2.10;;
42602;SDS011;28233;55.748;48.752;2022-08-21T08:15:16;7.53;;;2.22;;
42602;SDS011;28233;55.748;48.752;2022-08-21T08:17:21;4.72;;;2.47;;
42602;SDS011;28233;55.748;48.752;2022-08-21T08:19:25;3.65;;;2.45;;
42602;SDS011;28233;55.748;48.752;2022-08-21T08:21:27;4.15;;;1.92;;
42602;SDS011;28233;55.748;48.752;2022-08-21T08:23:30;2.78;;;1.88;;
42602;SDS011;28233;55.748;48.752;2022-08-21T08:25:34;5.90;;;2.72;;
42602;SDS011;28233;55.748;48.752;2022-08-21T08:27:37;5.90;;;2.13;;
42602;SDS011;28233;55.748;48.752;2022-08-21T08:29:41;4.28;;;2.13;;
42602;SDS011;28233;55.748;48.752;2022-08-21T08:31:44;3.08;;;2.22;;
42602;SDS011;28233;55.748;48.752;2022-08-21T08:33:47;5.65;;;1.75;;
42602;SDS011;28233;55.748;48.752;2022-08-21T08:35:50;4.18;;;2.08;;
42602;SDS011;28233;55.748;48.752;2022-08-21T08:37:54;4.95;;;2.30;;
42602;SDS011;28233;55.748;48.752;2022-08-21T08:39:57;4.30;;;2.22;;
42602;SDS011;28233;55.748;48.752;2022-08-21T08:42:03;4.55;;;1.73;;
42602;SDS011;28233;55.748;48.752;2022-08-21T08:44:29;7.30;;;2.65;;
42602;SDS011;28233;55.748;48.752;2022-08-21T08:48:51;6.20;;;1.95;;
42602;SDS011;28233;55.748;48.752;2022-08-21T08:50:57;3.42;;;2.53;;
42602;SDS011;28233;55.748;48.752;2022-08-21T08:53:06;7.10;;;2.17;;
42602;SDS011;28233;55.748;48.752;2022-08-21T08:57:37;6.00;;;2.00;;
42602;SDS011;28233;55.748;48.752;2022-08-21T08:59:56;4.35;;;2.22;;
42602;SDS011;28233;55.748;48.752;2022-08-21T09:02:19;5.47;;;2.40;;
42602;SDS011;28233;55.748;48.752;2022-08-21T09:04:26;3.65;;;1.95;;
42602;SDS011;28233;55.748;48.752;2022-08-21T09:06:37;5.80;;;2.30;;
42602;SDS011;28233;55.748;48.752;2022-08-21T09:09:02;5.70;;;2.40;;
42602;SDS011;28233;55.748;48.752;2022-08-21T09:11:15;5.30;;;2.83;;
42602;SDS011;28233;55.748;48.752;2022-08-21T09:13:39;6.20;;;3.13;;
42602;SDS011;28233;55.748;48.752;2022-08-21T09:16:09;5.45;;;3.30;;
42602;SDS011;28233;55.748;48.752;2022-08-21T09:27:02;4.97;;;2.85;;
42602;SDS011;28233;55.748;48.752;2022-08-21T09:29:09;4.25;;;2.30;;
42602;SDS011;28233;55.748;48.752;2022-08-21T09:31:25;5.32;;;2.58;;
42602;SDS011;28233;55.748;48.752;2022-08-21T09:33:30;7.78;;;1.98;;
42602;SDS011;28233;55.748;48.752;2022-08-21T09:35:36;4.38;;;2.42;;
42602;SDS011;28233;55.748;48.752;2022-08-21T09:40:00;4.57;;;2.50;;
42602;SDS011;28233;55.748;48.752;2022-08-21T09:42:07;3.53;;;2.10;;
42602;SDS011;28233;55.748;48.752;2022-08-21T09:44:11;4.88;;;2.67;;
42602;SDS011;28233;55.748;48.752;2022-08-21T09:46:21;8.38;;;2.67;;
42602;SDS011;28233;55.748;48.752;2022-08-21T09:48:25;3.78;;;2.72;;
42602;SDS011;28233;55.748;48.752;2022-08-21T09:50:34;4.30;;;3.10;;
42602;SDS011;28233;55.748;48.752;2022-08-21T09:52:42;3.53;;;2.38;;
42602;SDS011;28233;55.748;48.752;2022-08-21T09:55:01;5.82;;;2.30;;
42602;SDS011;28233;55.748;48.752;2022-08-21T09:57:25;6.43;;;2.50;;
42602;SDS011;28233;55.748;48.752;2022-08-21T09:59:51;5.13;;;2.53;;
42602;SDS011;28233;55.748;48.752;2022-08-21T10:01:54;9.93;;;2.60;;
42602;SDS011;28233;55.748;48.752;2022-08-21T10:04:04;6.85;;;3.22;;
42602;SDS011;28233;55.748;48.752;2022-08-21T10:06:10;7.50;;;2.75;;
42602;SDS011;28233;55.748;48.752;2022-08-21T10:08:31;8.05;;;2.83;;
42602;SDS011;28233;55.748;48.752;2022-08-21T10:10:37;4.03;;;3.00;;
42602;SDS011;28233;55.748;48.752;2022-08-21T10:12:46;2.42;;;2.05;;
42602;SDS011;28233;55.748;48.752;2022-08-21T10:15:07;4.30;;;2.78;;
42602;SDS011;28233;55.748;48.752;2022-08-21T10:20:07;4.13;;;2.55;;
42602;SDS011;28233;55.748;48.752;2022-08-21T10:30:15;5.50;;;2.90;;
42602;SDS011;28233;55.748;48.752;2022-08-21T10:35:13;5.68;;;2.80;;
42602;SDS011;28233;55.748;48.752;2022-08-21T10:37:45;10.73;;;3.20;;
42602;SDS011;28233;55.748;48.752;2022-08-21T10:47:35;5.55;;;2.83;;
42602;SDS011;28233;55.748;48.752;2022-08-21T10:54:38;8.30;;;3.88;;
42602;SDS011;28233;55.748;48.752;2022-08-21T10:56:55;4.28;;;2.80;;
42602;SDS011;28233;55.748;48.752;2022-08-21T10:59:11;12.65;;;2.80;;
42602;SDS011;28233;55.748;48.752;2022-08-21T11:04:02;4.18;;;2.75;;
42602;SDS011;28233;55.748;48.752;2022-08-21T11:06:21;5.68;;;2.67;;
42602;SDS011;28233;55.748;48.752;2022-08-21T11:08:31;5.63;;;2.85;;
42602;SDS011;28233;55.748;48.752;2022-08-21T11:10:39;8.07;;;2.97;;
42602;SDS011;28233;55.748;48.752;2022-08-21T11:13:03;4.05;;;2.80;;
42602;SDS011;28233;55.748;48.752;2022-08-21T11:15:43;8.60;;;2.78;;
42602;SDS011;28233;55.748;48.752;2022-08-21T11:18:14;5.90;;;3.08;;
42602;SDS011;28233;55.748;48.752;2022-08-21T11:22:53;8.30;;;2.97;;
42602;SDS011;28233;55.748;48.752;2022-08-21T11:25:26;5.20;;;2.42;;
42602;SDS011;28233;55.748;48.752;2022-08-21T11:27:42;8.45;;;3.20;;
42602;SDS011;28233;55.748;48.752;2022-08-21T11:29:56;4.60;;;2.50;;
42602;SDS011;28233;55.748;48.752;2022-08-21T11:37:01;5.57;;;2.90;;
42602;SDS011;28233;55.748;48.752;2022-08-21T11:41:44;4.55;;;2.58;;
42602;SDS011;28233;55.748;48.752;2022-08-21T11:44:18;4.15;;;3.10;;
42602;SDS011;28233;55.748;48.752;2022-08-21T11:51:41;5.47;;;2.80;;
42602;SDS011;28233;55.748;48.752;2022-08-21T11:53:57;6.22;;;2.80;;
42602;SDS011;28233;55.748;48.752;2022-08-21T11:56:10;4.40;;;3.05;;
42602;SDS011;28233;55.748;48.752;2022-08-21T12:01:07;8.38;;;2.72;;
42602;SDS011;28233;55.748;48.752;2022-08-21T12:02:55;3.03;;;2.47;;
42602;SDS011;28233;55.748;48.752;2022-08-21T12:05:04;4.13;;;2.30;;
42602;SDS011;28233;55.748;48.752;2022-08-21T12:07:15;6.28;;;2.67;;
42602;SDS011;28233;55.748;48.752;2022-08-21T12:09:32;4.93;;;3.05;;
42602;SDS011;28233;55.748;48.752;2022-08-21T12:11:47;4.68;;;2.55;;
42602;SDS011;28233;55.748;48.752;2022-08-21T12:13:55;3.58;;;2.45;;
42602;SDS011;28233;55.748;48.752;2022-08-21T12:16:13;5.85;;;2.78;;
42602;SDS011;28233;55.748;48.752;2022-08-21T12:20:37;5.35;;;2.65;;
42602;SDS011;28233;55.748;48.752;2022-08-21T12:25:16;4.82;;;2.60;;
42602;SDS011;28233;55.748;48.752;2022-08-21T12:27:27;13.15;;;3.00;;
42602;SDS011;28233;55.748;48.752;2022-08-21T12:29:50;3.83;;;2.57;;
42602;SDS011;28233;55.748;48.752;2022-08-21T12:32:02;6.13;;;2.90;;
42602;SDS011;28233;55.748;48.752;2022-08-21T12:34:07;10.82;;;3.47;;
42602;SDS011;28233;55.748;48.752;2022-08-21T12:36:14;9.50;;;2.90;;
42602;SDS011;28233;55.748;48.752;2022-08-21T12:38:28;5.07;;;2.70;;
42602;SDS011;28233;55.748;48.752;2022-08-21T12:40:49;5.15;;;2.80;;
42602;SDS011;28233;55.748;48.752;2022-08-21T12:43:11;3.45;;;2.75;;
42602;SDS011;28233;55.748;48.752;2022-08-21T12:45:23;5.13;;;2.88;;
42602;SDS011;28233;55.748;48.752;2022-08-21T12:47:51;11.90;;;3.20;;
42602;SDS011;28233;55.748;48.752;2022-08-21T12:50:08;4.07;;;2.60;;
42602;SDS011;28233;55.748;48.752;2022-08-21T12:52:21;6.38;;;2.88;;
42602;SDS011;28233;55.748;48.752;2022-08-21T12:54:28;6.80;;;2.90;;
42602;SDS011;28233;55.748;48.752;2022-08-21T12:56:33;5.50;;;3.17;;
42602;SDS011;28233;55.748;48.752;2022-08-21T12:58:44;7.75;;;2.50;;
42602;SDS011;28233;55.748;48.752;2022-08-21T13:00:53;7.38;;;3.47;;
42602;SDS011;28233;55.748;48.752;2022-08-21T13:02:59;14.35;;;3.47;;
42602;SDS011;28233;55.748;48.752;2022-08-21T13:05:03;5.72;;;2.35;;
42602;SDS011;28233;55.748;48.752;2022-08-21T13:07:12;6.07;;;3.40;;
42602;SDS011;28233;55.748;48.752;2022-08-21T13:09:21;5.20;;;2.33;;
42602;SDS011;28233;55.748;48.752;2022-08-21T13:11:29;4.00;;;2.17;;
42602;SDS011;28233;55.748;48.752;2022-08-21T13:13:35;6.43;;;2.05;;
42602;SDS011;28233;55.748;48.752;2022-08-21T13:15:47;6.15;;;2.80;;
42602;SDS011;28233;55.748;48.752;2022-08-21T13:17:50;5.47;;;2.72;;
42602;SDS011;28233;55.748;48.752;2022-08-21T13:20:00;5.75;;;3.17;;
42602;SDS011;28233;55.748;48.752;2022-08-21T13:22:12;3.63;;;2.60;;
42602;SDS011;28233;55.748;48.752;2022-08-21T13:24:36;8.32;;;3.15;;
42602;SDS011;28233;55.748;48.752;2022-08-21T13:26:44;4.72;;;2.53;;
42602;SDS011;28233;55.748;48.752;2022-08-21T13:28:48;4.57;;;2.70;;
42602;SDS011;28233;55.748;48.752;2022-08-21T13:30:53;8.27;;;2.72;;
42602;SDS011;28233;55.748;48.752;2022-08-21T13:32:58;8.35;;;2.78;;
42602;SDS011;28233;55.748;48.752;2022-08-21T13:35:10;10.35;;;3.58;;
42602;SDS011;28233;55.748;48.752;2022-08-21T13:37:20;6.28;;;2.92;;
42602;SDS011;28233;55.748;48.752;2022-08-21T13:39:25;9.00;;;3.50;;
42602;SDS011;28233;55.748;48.752;2022-08-21T13:41:29;7.55;;;3.28;;